createdAt,value
2023-06-15T00:02:24.621Z,21.50
2023-06-15T00:05:17.198Z,21.49
2023-06-15T00:07:44.941Z,21.43
2023-06-15T00:10:12.799Z,21.36
2023-06-15T00:12:39.824Z,21.31
2023-06-15T00:15:07.779Z,21.27
2023-06-15T00:17:39.136Z,21.25
2023-06-15T00:20:09.617Z,21.18
2023-06-15T00:22:39.754Z,21.13
2023-06-15T00:25:08.295Z,21.09
2023-06-15T00:27:36.710Z,21.03
2023-06-15T00:30:07.169Z,20.97
2023-06-15T00:32:34.202Z,20.93
2023-06-15T00:35:01.219Z,20.90
2023-06-15T00:37:28.220Z,20.83
2023-06-15T00:39:55.699Z,20.78
2023-06-15T00:42:22.798Z,20.54
2023-06-15T00:44:49.759Z,20.50
2023-06-15T00:47:22.472Z,20.46
2023-06-15T00:49:50.320Z,20.36
2023-06-15T00:52:18.698Z,20.33
2023-06-15T00:54:46.663Z,20.29
2023-06-15T00:57:15.945Z,20.30
2023-06-15T00:59:43.728Z,20.29
2023-06-15T01:02:14.207Z,20.29
2023-06-15T01:04:41.627Z,20.31
2023-06-15T01:07:12.322Z,20.32
2023-06-15T01:09:42.978Z,20.28
2023-06-15T01:12:15.564Z,20.28
2023-06-15T01:14:42.680Z,20.26
2023-06-15T01:17:17.298Z,20.24
2023-06-15T01:19:59.264Z,20.26
2023-06-15T01:22:36.323Z,20.30
2023-06-15T01:25:34.323Z,20.30
2023-06-15T01:28:03.918Z,20.25
2023-06-15T01:30:34.880Z,20.23
2023-06-15T01:33:02.315Z,20.19
2023-06-15T01:35:37.406Z,20.14
2023-06-15T01:38:05.143Z,20.13
2023-06-15T01:40:35.134Z,20.06
2023-06-15T01:43:04.378Z,20.02
2023-06-15T01:45:40.942Z,20.02
2023-06-15T01:48:08.487Z,19.99
2023-06-15T01:50:37.325Z,19.96
2023-06-15T01:53:04.762Z,19.87
2023-06-15T01:55:36.558Z,19.84
2023-06-15T01:58:04.042Z,19.80
2023-06-15T02:00:31.119Z,19.76
2023-06-15T02:02:58.286Z,19.72
2023-06-15T02:05:25.346Z,19.67
2023-06-15T02:07:53.635Z,19.62
2023-06-15T02:10:20.890Z,19.58
2023-06-15T02:12:47.930Z,19.56
2023-06-15T02:15:15.191Z,19.55
2023-06-15T02:17:42.871Z,19.51
2023-06-15T02:20:10.915Z,19.49
2023-06-15T02:22:38.029Z,19.45
2023-06-15T02:25:06.313Z,19.42
2023-06-15T02:27:33.267Z,19.41
2023-06-15T02:30:00.335Z,19.39
2023-06-15T02:32:36.587Z,19.34
2023-06-15T02:35:06.614Z,19.32
2023-06-15T02:37:34.094Z,19.31
2023-06-15T02:40:01.333Z,19.28
2023-06-15T02:42:28.282Z,19.27
2023-06-15T02:44:55.245Z,19.29
2023-06-15T02:47:22.410Z,19.22
2023-06-15T02:49:49.482Z,19.12
2023-06-15T02:52:16.593Z,19.09
2023-06-15T02:54:44.713Z,19.07
2023-06-15T02:57:11.706Z,19.05
2023-06-15T02:59:39.102Z,19.05
2023-06-15T03:02:06.317Z,19.05
2023-06-15T03:04:45.738Z,18.93
2023-06-15T03:07:18.410Z,18.89
2023-06-15T03:09:48.983Z,18.84
2023-06-15T03:12:16.667Z,18.82
2023-06-15T03:14:51.899Z,18.82
2023-06-15T03:17:19.972Z,18.82
2023-06-15T03:19:49.027Z,18.76
2023-06-15T03:22:16.466Z,18.69
2023-06-15T03:24:46.110Z,18.66
2023-06-15T03:27:13.298Z,18.61
2023-06-15T03:29:40.964Z,18.55
2023-06-15T03:32:09.398Z,18.49
2023-06-15T03:34:37.300Z,18.46
2023-06-15T03:37:04.712Z,18.32
2023-06-15T03:39:32.185Z,18.33
2023-06-15T03:41:59.436Z,18.33
2023-06-15T03:44:26.498Z,18.28
2023-06-15T03:46:53.438Z,18.27
2023-06-15T03:49:20.367Z,18.25
2023-06-15T03:51:47.393Z,18.25
2023-06-15T03:54:14.293Z,18.21
2023-06-15T03:56:41.783Z,18.20
2023-06-15T03:59:08.858Z,18.15
2023-06-15T04:01:35.755Z,18.12
2023-06-15T04:04:02.825Z,18.12
2023-06-15T04:06:31.316Z,18.10
2023-06-15T04:08:58.420Z,18.14
2023-06-15T04:11:25.610Z,18.21
2023-06-15T04:13:52.537Z,18.26
2023-06-15T04:16:19.443Z,18.33
2023-06-15T04:18:46.987Z,18.36
2023-06-15T04:21:14.212Z,18.38
2023-06-15T04:23:44.693Z,18.36
2023-06-15T04:26:11.744Z,18.37
2023-06-15T04:28:38.692Z,18.35
2023-06-15T04:31:11.566Z,18.33
2023-06-15T04:33:46.323Z,18.32
2023-06-15T04:36:14.192Z,18.29
2023-06-15T04:38:47.921Z,18.30
2023-06-15T04:41:16.305Z,18.31
2023-06-15T04:43:43.339Z,18.33
2023-06-15T04:46:10.465Z,18.29
2023-06-15T04:48:38.163Z,18.29
2023-06-15T04:51:06.399Z,18.31
2023-06-15T04:53:33.427Z,18.28
2023-06-15T04:56:00.431Z,18.29
2023-06-15T04:58:27.413Z,18.33
2023-06-15T05:00:54.409Z,18.35
2023-06-15T05:03:26.978Z,18.40
2023-06-15T05:05:54.453Z,18.43
2023-06-15T05:08:21.582Z,18.47
2023-06-15T05:10:48.654Z,18.45
2023-06-15T05:13:23.784Z,18.41
2023-06-15T05:15:54.746Z,18.41
2023-06-15T05:18:23.020Z,18.38
2023-06-15T05:20:50.174Z,18.41
2023-06-15T05:23:21.265Z,18.37
2023-06-15T05:25:48.235Z,18.41
2023-06-15T05:28:15.702Z,18.45
2023-06-15T05:30:42.630Z,18.49
2023-06-15T05:33:09.770Z,18.49
2023-06-15T05:35:36.862Z,18.49
2023-06-15T05:38:03.828Z,18.53
2023-06-15T05:40:30.894Z,18.59
2023-06-15T05:42:58.371Z,18.59
2023-06-15T05:45:27.309Z,18.55
2023-06-15T05:47:54.748Z,18.49
2023-06-15T05:50:21.924Z,18.48
2023-06-15T05:52:49.170Z,18.54
2023-06-15T05:55:16.626Z,18.55
2023-06-15T05:57:43.799Z,18.47
2023-06-15T06:00:11.820Z,18.53
2023-06-15T06:02:38.886Z,18.80
2023-06-15T06:05:06.288Z,18.91
2023-06-15T06:07:33.220Z,19.05
2023-06-15T06:10:00.247Z,19.09
2023-06-15T06:12:27.262Z,19.31
2023-06-15T06:14:54.204Z,19.42
2023-06-15T06:17:42.957Z,19.36
2023-06-15T06:20:08.792Z,19.32
2023-06-15T06:22:35.892Z,19.20
2023-06-15T06:25:02.861Z,19.15
2023-06-15T06:27:29.798Z,19.12
2023-06-15T06:29:57.563Z,19.17
2023-06-15T06:32:24.599Z,19.29
2023-06-15T06:34:51.702Z,19.49
2023-06-15T06:37:18.744Z,19.55
2023-06-15T06:39:45.677Z,19.57
2023-06-15T06:42:13.014Z,19.70
2023-06-15T06:44:40.136Z,19.94
2023-06-15T06:47:07.565Z,19.94
2023-06-15T06:49:35.152Z,19.69
2023-06-15T06:52:02.455Z,19.64
2023-06-15T06:54:29.461Z,19.57
2023-06-15T06:56:56.405Z,19.57
2023-06-15T06:59:41.875Z,19.54
2023-06-15T07:02:10.545Z,19.51
2023-06-15T07:04:41.336Z,19.48
2023-06-15T07:07:08.590Z,19.49
2023-06-15T07:09:36.251Z,19.52
2023-06-15T07:12:03.738Z,19.51
2023-06-15T07:14:36.221Z,19.45
2023-06-15T07:17:03.567Z,19.51
2023-06-15T07:19:30.695Z,19.59
2023-06-15T07:21:57.788Z,19.63
2023-06-15T07:24:25.223Z,19.67
2023-06-15T07:26:52.685Z,19.75
2023-06-15T07:29:20.881Z,19.81
2023-06-15T07:31:50.044Z,19.97
2023-06-15T07:34:17.870Z,20.10
2023-06-15T07:36:46.651Z,20.33
2023-06-15T07:39:18.189Z,20.69
2023-06-15T07:41:45.660Z,21.35
2023-06-15T07:44:23.628Z,22.82
2023-06-15T07:46:51.624Z,23.97
2023-06-15T07:49:24.516Z,24.26
2023-06-15T07:52:09.456Z,24.21
2023-06-15T07:54:43.587Z,24.23
2023-06-15T07:57:12.601Z,24.08
2023-06-15T07:59:43.512Z,23.75
2023-06-15T08:02:17.142Z,23.56
2023-06-15T08:05:03.370Z,23.33
2023-06-15T08:07:33.295Z,23.12
2023-06-15T08:10:01.513Z,22.78
2023-06-15T08:12:40.450Z,22.55
2023-06-15T08:15:22.592Z,22.49
2023-06-15T08:18:17.617Z,22.40
2023-06-15T08:20:58.734Z,22.63
2023-06-15T08:23:39.102Z,22.68
2023-06-15T08:26:17.605Z,22.54
2023-06-15T08:28:52.333Z,22.59
2023-06-15T08:31:21.678Z,23.21
2023-06-15T08:34:04.815Z,24.03
2023-06-15T08:39:28.820Z,23.96
2023-06-15T08:41:57.494Z,23.53
2023-06-15T08:44:31.111Z,23.53
2023-06-15T08:47:17.359Z,23.53
2023-06-15T08:49:53.937Z,23.46
2023-06-15T08:52:33.788Z,23.56
2023-06-15T08:55:23.740Z,23.56
2023-06-15T08:58:27.798Z,23.26
2023-06-15T09:01:20.426Z,22.73
2023-06-15T09:03:58.820Z,22.64
2023-06-15T09:06:44.335Z,22.72
2023-06-15T09:09:21.553Z,23.07
2023-06-15T09:11:50.547Z,23.44
2023-06-15T09:17:55.964Z,23.46
2023-06-15T09:20:45.710Z,23.47
2023-06-15T09:23:28.186Z,23.48
2023-06-15T09:26:27.648Z,23.49
2023-06-15T09:29:19.299Z,23.29
2023-06-15T09:31:48.935Z,23.33
2023-06-15T09:34:36.378Z,23.34
2023-06-15T09:37:36.003Z,23.39
2023-06-15T09:40:16.644Z,23.49
2023-06-15T09:42:57.141Z,23.63
2023-06-15T09:45:43.587Z,23.66
2023-06-15T09:48:27.704Z,23.63
2023-06-15T09:51:07.363Z,23.65
2023-06-15T09:54:02.622Z,23.57
2023-06-15T09:56:45.670Z,23.68
2023-06-15T09:59:27.462Z,23.75
2023-06-15T10:02:14.629Z,23.85
2023-06-15T10:04:44.448Z,24.01
2023-06-15T10:07:14.174Z,24.13
2023-06-15T10:09:48.670Z,24.21
2023-06-15T10:12:19.215Z,24.45
2023-06-15T10:15:00.212Z,24.58
2023-06-15T10:17:35.502Z,24.58
2023-06-15T10:20:09.415Z,24.66
2023-06-15T10:22:47.857Z,24.65
2023-06-15T10:25:16.555Z,24.64
2023-06-15T10:27:46.050Z,24.75
2023-06-15T10:30:33.512Z,24.83
2023-06-15T10:33:18.773Z,24.82
2023-06-15T10:36:12.558Z,24.92
2023-06-15T10:38:50.260Z,24.99
2023-06-15T10:41:18.391Z,25.04
2023-06-15T10:43:59.826Z,25.13
2023-06-15T10:46:33.025Z,25.18
2023-06-15T10:49:11.841Z,25.01
2023-06-15T10:51:51.967Z,25.04
2023-06-15T10:54:29.120Z,25.11
2023-06-15T10:56:57.598Z,25.14
2023-06-15T10:59:38.523Z,25.25
2023-06-15T11:02:35.409Z,25.30
2023-06-15T11:05:12.301Z,25.29
2023-06-15T11:07:43.122Z,25.22
2023-06-15T11:10:12.332Z,25.14
2023-06-15T11:12:42.805Z,25.11
2023-06-15T11:15:12.554Z,25.14
2023-06-15T11:18:00.377Z,25.21
2023-06-15T11:20:41.207Z,25.23
2023-06-15T11:23:22.486Z,25.31
2023-06-15T11:25:52.539Z,25.42
2023-06-15T11:28:35.824Z,25.55
2023-06-15T11:31:08.545Z,25.63
2023-06-15T11:33:39.164Z,25.74
2023-06-15T11:36:08.825Z,25.74
2023-06-15T11:38:38.126Z,25.83
2023-06-15T11:41:09.021Z,25.91
2023-06-15T11:43:42.684Z,25.94
2023-06-15T11:46:13.539Z,25.99
2023-06-15T11:48:43.068Z,25.98
2023-06-15T11:51:13.083Z,25.94
2023-06-15T11:53:42.406Z,25.90
2023-06-15T11:56:16.340Z,25.88
2023-06-15T11:58:47.922Z,25.93
2023-06-15T12:01:17.586Z,25.94
2023-06-15T12:04:02.078Z,25.95
2023-06-15T12:06:32.816Z,25.98
2023-06-15T12:09:01.126Z,26.04
2023-06-15T12:11:28.789Z,26.04
2023-06-15T12:14:08.564Z,26.08
2023-06-15T12:16:36.835Z,26.12
2023-06-15T12:19:05.945Z,26.18
2023-06-15T12:21:39.109Z,26.27
2023-06-15T12:24:15.628Z,26.28
2023-06-15T12:26:49.200Z,26.28
2023-06-15T12:29:18.320Z,26.38
2023-06-15T12:31:50.957Z,26.42
2023-06-15T12:34:24.144Z,26.44
2023-06-15T12:36:54.104Z,26.33
2023-06-15T12:39:28.245Z,26.27
2023-06-15T12:42:05.128Z,26.34
2023-06-15T12:44:36.296Z,26.41
2023-06-15T12:47:04.419Z,26.35
2023-06-15T12:49:33.279Z,26.29
2023-06-15T12:52:01.394Z,26.24
2023-06-15T12:54:29.039Z,26.26
2023-06-15T12:56:56.690Z,26.28
2023-06-15T12:59:24.562Z,26.30
2023-06-15T13:01:52.249Z,26.30
2023-06-15T13:04:20.547Z,26.29
2023-06-15T13:06:48.518Z,26.30
2023-06-15T13:09:16.090Z,26.34
2023-06-15T13:11:44.119Z,26.37
2023-06-15T13:14:11.673Z,26.45
2023-06-15T13:16:39.472Z,26.56
2023-06-15T13:19:09.135Z,26.68
2023-06-15T13:21:36.637Z,26.68
2023-06-15T13:24:04.683Z,26.65
2023-06-15T13:26:32.504Z,26.64
2023-06-15T13:29:02.801Z,26.67
2023-06-15T13:31:30.409Z,26.72
2023-06-15T13:33:57.983Z,26.71
2023-06-15T13:36:25.679Z,26.64
2023-06-15T13:38:54.005Z,26.54
2023-06-15T13:41:21.493Z,26.49
2023-06-15T13:43:49.857Z,26.48
2023-06-15T13:46:19.471Z,26.52
2023-06-15T13:48:47.671Z,26.53
2023-06-15T13:51:15.323Z,26.65
2023-06-15T13:53:42.868Z,26.60
2023-06-15T13:56:10.762Z,26.54
2023-06-15T13:58:38.823Z,26.47
2023-06-15T14:01:06.998Z,26.41
2023-06-15T14:03:35.516Z,26.34
2023-06-15T14:06:03.787Z,26.30
2023-06-15T14:08:31.675Z,26.21
2023-06-15T14:10:59.508Z,26.16
2023-06-15T14:13:28.742Z,26.25
2023-06-15T14:15:56.466Z,26.37
2023-06-15T14:18:24.970Z,26.38
2023-06-15T14:20:52.809Z,26.35
2023-06-15T14:23:20.778Z,26.34
2023-06-15T14:25:48.624Z,26.32
2023-06-15T14:28:18.884Z,26.42
2023-06-15T14:30:46.765Z,26.47
2023-06-15T14:33:14.762Z,26.54
2023-06-15T14:35:42.249Z,26.50
2023-06-15T14:38:09.980Z,26.50
2023-06-15T14:40:38.122Z,26.49
2023-06-15T14:43:05.914Z,26.44
2023-06-15T14:45:33.184Z,26.38
2023-06-15T14:48:00.480Z,26.36
2023-06-15T14:50:27.885Z,26.31
2023-06-15T14:52:55.385Z,26.26
2023-06-15T14:55:22.829Z,26.29
2023-06-15T14:57:50.266Z,26.34
2023-06-15T15:00:19.002Z,26.39
2023-06-15T15:02:49.067Z,26.48
2023-06-15T15:05:17.988Z,26.61
2023-06-15T15:07:45.538Z,26.72
2023-06-15T15:10:13.043Z,26.75
2023-06-15T15:12:41.367Z,26.74
2023-06-15T15:15:09.728Z,26.67
2023-06-15T15:17:37.102Z,26.59
2023-06-15T15:20:05.844Z,26.52
2023-06-15T15:22:33.320Z,26.52
2023-06-15T15:25:01.155Z,26.61
2023-06-15T15:27:28.929Z,26.62
2023-06-15T15:29:56.258Z,26.61
2023-06-15T15:32:23.619Z,26.59
2023-06-15T15:34:51.442Z,26.50
2023-06-15T15:37:19.211Z,26.44
2023-06-15T15:39:46.642Z,26.39
2023-06-15T15:42:14.126Z,26.31
2023-06-15T15:44:41.580Z,26.26
2023-06-15T15:47:09.373Z,26.27
2023-06-15T15:49:36.845Z,26.32
2023-06-15T15:52:04.685Z,26.35
2023-06-15T15:54:31.998Z,26.37
2023-06-15T15:57:01.700Z,26.38
2023-06-15T15:59:29.049Z,26.38
2023-06-15T16:01:56.947Z,26.40
2023-06-15T16:04:24.558Z,26.39
2023-06-15T16:06:52.242Z,26.42
2023-06-15T16:09:19.547Z,26.42
2023-06-15T16:11:46.988Z,26.41
2023-06-15T16:14:14.249Z,26.44
2023-06-15T16:16:41.736Z,26.39
2023-06-15T16:19:09.055Z,26.39
2023-06-15T16:21:37.745Z,26.38
2023-06-15T16:24:06.802Z,26.38
2023-06-15T16:26:34.181Z,26.36
2023-06-15T16:29:01.671Z,26.36
2023-06-15T16:31:29.074Z,26.37
2023-06-15T16:33:56.312Z,26.32
2023-06-15T16:36:23.814Z,26.30
2023-06-15T16:38:51.300Z,26.30
2023-06-15T16:41:18.559Z,26.29
2023-06-15T16:43:45.796Z,26.29
2023-06-15T16:46:16.622Z,26.29
2023-06-15T16:48:43.931Z,26.27
2023-06-15T16:51:11.290Z,26.28
2023-06-15T16:53:38.672Z,26.26
2023-06-15T16:56:06.253Z,26.28
2023-06-15T16:58:33.510Z,26.31
2023-06-15T17:01:01.062Z,26.27
2023-06-15T17:03:28.753Z,26.23
2023-06-15T17:05:56.561Z,26.18
2023-06-15T17:08:23.935Z,26.12
2023-06-15T17:10:51.340Z,26.11
2023-06-15T17:13:18.621Z,26.09
2023-06-15T17:15:46.211Z,26.06
2023-06-15T17:18:13.541Z,26.00
2023-06-15T17:20:40.778Z,25.97
2023-06-15T17:23:08.121Z,25.96
2023-06-15T17:25:35.502Z,25.95
2023-06-15T17:28:03.459Z,25.95
2023-06-15T17:30:31.295Z,25.94
2023-06-15T17:32:58.720Z,25.92
2023-06-15T17:35:26.417Z,25.94
2023-06-15T17:37:53.706Z,25.91
2023-06-15T17:40:21.856Z,25.90
2023-06-15T17:42:49.549Z,25.89
2023-06-15T17:45:16.730Z,25.87
2023-06-15T17:47:45.121Z,25.85
2023-06-15T17:50:12.421Z,25.82
2023-06-15T17:52:41.002Z,25.78
2023-06-15T17:55:09.516Z,25.74
2023-06-15T17:57:37.400Z,25.72
2023-06-15T18:00:07.581Z,25.69
2023-06-15T18:02:36.872Z,25.68
2023-06-15T18:05:08.261Z,25.64
2023-06-15T18:07:35.730Z,25.64
2023-06-15T18:10:03.651Z,25.60
2023-06-15T18:12:31.739Z,25.60
2023-06-15T18:14:59.619Z,25.57
2023-06-15T18:17:27.528Z,25.57
2023-06-15T18:19:54.742Z,25.53
2023-06-15T18:22:22.007Z,25.49
2023-06-15T18:24:49.389Z,25.48
2023-06-15T18:27:16.758Z,25.47
2023-06-15T18:29:43.979Z,25.43
2023-06-15T18:32:11.332Z,25.44
2023-06-15T18:34:48.660Z,25.41
2023-06-15T18:37:16.016Z,25.37
2023-06-15T18:39:43.221Z,25.33
2023-06-15T18:42:11.929Z,25.30
2023-06-15T18:44:39.130Z,25.27
2023-06-15T18:47:07.347Z,25.25
2023-06-15T18:49:34.712Z,25.22
2023-06-15T18:52:02.020Z,25.20
2023-06-15T18:54:29.204Z,25.18
2023-06-15T18:56:57.795Z,25.11
2023-06-15T18:59:25.004Z,25.10
2023-06-15T19:01:52.962Z,25.04
2023-06-15T19:04:20.368Z,24.98
2023-06-15T19:06:48.546Z,24.95
2023-06-15T19:09:15.991Z,24.90
2023-06-15T19:11:43.599Z,24.87
2023-06-15T19:14:11.582Z,24.86
2023-06-15T19:16:38.729Z,24.83
2023-06-15T19:19:06.179Z,24.75
2023-06-15T19:21:38.470Z,24.70
2023-06-15T19:24:09.006Z,24.67
2023-06-15T19:26:37.648Z,24.65
2023-06-15T19:29:06.316Z,24.62
2023-06-15T19:31:34.407Z,24.59
2023-06-15T19:34:02.070Z,24.57
2023-06-15T19:36:30.179Z,24.52
2023-06-15T19:39:02.659Z,24.48
2023-06-15T19:41:31.196Z,24.46
2023-06-15T19:43:58.720Z,24.44
2023-06-15T19:46:25.938Z,24.37
2023-06-15T19:48:55.510Z,24.34
2023-06-15T19:51:22.865Z,24.31
2023-06-15T19:53:52.329Z,24.25
2023-06-15T19:56:19.677Z,24.22
2023-06-15T19:58:47.040Z,24.17
2023-06-15T20:01:14.436Z,24.13
2023-06-15T20:03:41.767Z,24.10
2023-06-15T20:06:10.958Z,24.06
2023-06-15T20:08:39.653Z,24.00
2023-06-15T20:11:08.723Z,23.99
2023-06-15T20:13:38.306Z,23.95
2023-06-15T20:16:13.672Z,23.90
2023-06-15T20:18:48.093Z,23.90
2023-06-15T20:21:15.852Z,23.87
2023-06-15T20:23:43.908Z,23.81
2023-06-15T20:26:14.059Z,23.81
2023-06-15T20:28:43.437Z,23.76
2023-06-15T20:31:10.983Z,23.72
2023-06-15T20:33:41.888Z,23.72
2023-06-15T20:36:08.999Z,23.70
2023-06-15T20:38:36.437Z,23.69
2023-06-15T20:41:05.809Z,23.68
2023-06-15T20:43:33.695Z,23.64
2023-06-15T20:46:03.177Z,23.61
2023-06-15T20:48:34.203Z,23.62
2023-06-15T20:51:02.837Z,23.60
2023-06-15T20:53:30.163Z,23.60
2023-06-15T20:55:58.187Z,23.57
2023-06-15T20:58:25.388Z,23.55
2023-06-15T21:00:53.242Z,23.52
2023-06-15T21:03:20.669Z,23.50
2023-06-15T21:05:48.566Z,23.48
2023-06-15T21:08:15.833Z,23.44
2023-06-15T21:10:43.086Z,23.43
2023-06-15T21:13:10.337Z,23.40
2023-06-15T21:15:38.328Z,23.39
2023-06-15T21:18:05.717Z,23.36
2023-06-15T21:20:38.881Z,23.32
2023-06-15T21:23:05.988Z,23.29
2023-06-15T21:25:33.153Z,23.25
2023-06-15T21:28:00.351Z,23.20
2023-06-15T21:30:27.558Z,23.14
2023-06-15T21:32:55.041Z,23.10
2023-06-15T21:35:26.559Z,23.06
2023-06-15T21:37:53.862Z,23.04
2023-06-15T21:40:21.142Z,23.00
2023-06-15T21:42:49.555Z,22.94
2023-06-15T21:45:17.236Z,22.94
2023-06-15T21:47:46.565Z,22.90
2023-06-15T21:50:14.097Z,22.86
2023-06-15T21:52:47.439Z,22.83
2023-06-15T21:55:16.408Z,22.78
2023-06-15T21:57:45.605Z,22.74
2023-06-15T22:00:13.935Z,22.65
2023-06-15T22:02:42.074Z,22.64
2023-06-15T22:05:10.027Z,22.59
2023-06-15T22:07:37.169Z,22.54
2023-06-15T22:10:07.015Z,22.52
2023-06-15T22:12:34.560Z,22.49
2023-06-15T22:15:02.660Z,22.47
2023-06-15T22:17:29.840Z,22.46
2023-06-15T22:19:58.793Z,22.48
2023-06-15T22:22:26.563Z,22.43
2023-06-15T22:24:54.916Z,22.38
2023-06-15T22:27:22.187Z,22.33
2023-06-15T22:29:52.625Z,22.32
2023-06-15T22:32:21.074Z,22.31
2023-06-15T22:34:49.516Z,22.29
2023-06-15T22:37:17.697Z,22.26
2023-06-15T22:39:45.211Z,22.23
2023-06-15T22:42:12.951Z,22.20
2023-06-15T22:44:40.138Z,22.17
2023-06-15T22:47:07.859Z,22.18
2023-06-15T22:49:35.763Z,22.16
2023-06-15T22:52:04.694Z,22.13
2023-06-15T22:54:32.657Z,22.10
2023-06-15T22:56:59.819Z,22.08
2023-06-15T22:59:26.896Z,22.08
2023-06-15T23:01:54.270Z,22.08
2023-06-15T23:04:21.470Z,22.08
2023-06-15T23:06:48.742Z,22.03
2023-06-15T23:09:15.971Z,22.01
2023-06-15T23:11:43.089Z,22.00
2023-06-15T23:14:10.550Z,21.98
2023-06-15T23:16:38.118Z,21.93
2023-06-15T23:19:06.120Z,21.90
2023-06-15T23:21:40.784Z,21.88
2023-06-15T23:24:08.779Z,21.86
2023-06-15T23:26:40.288Z,21.85
2023-06-15T23:29:08.222Z,21.85
2023-06-15T23:31:35.801Z,21.83
2023-06-15T23:34:03.488Z,21.82
2023-06-15T23:36:30.592Z,21.81
2023-06-15T23:38:57.659Z,21.79
2023-06-15T23:41:25.050Z,21.74
2023-06-15T23:43:53.317Z,21.72
2023-06-15T23:46:21.267Z,21.68
2023-06-15T23:48:49.391Z,21.69
2023-06-15T23:51:18.331Z,21.69
2023-06-15T23:53:46.656Z,21.65
2023-06-15T23:56:13.741Z,21.64
2023-06-15T23:58:41.264Z,21.65
